sensor_id;sensor_type;location;lat;lon;timestamp;P1;durP1;ratioP1;P2;durP2;ratioP2
48574;SDS011;34352;51.084;3.712;2022-07-15T00:00:29;14.50;;;6.78;;
48574;SDS011;34352;51.084;3.712;2022-07-15T00:02:58;14.13;;;6.40;;
48574;SDS011;34352;51.084;3.712;2022-07-15T00:05:24;13.27;;;6.60;;
48574;SDS011;34352;51.084;3.712;2022-07-15T00:07:50;13.98;;;6.78;;
48574;SDS011;34352;51.084;3.712;2022-07-15T00:10:16;13.82;;;7.00;;
48574;SDS011;34352;51.084;3.712;2022-07-15T00:12:49;11.68;;;6.28;;
48574;SDS011;34352;51.084;3.712;2022-07-15T00:15:17;13.90;;;7.00;;
48574;SDS011;34352;51.084;3.712;2022-07-15T00:17:45;12.95;;;6.45;;
48574;SDS011;34352;51.084;3.712;2022-07-15T00:20:11;11.93;;;6.63;;
48574;SDS011;34352;51.084;3.712;2022-07-15T00:22:38;16.33;;;6.55;;
48574;SDS011;34352;51.084;3.712;2022-07-15T00:25:05;14.07;;;6.75;;
48574;SDS011;34352;51.084;3.712;2022-07-15T00:27:31;13.30;;;6.72;;
48574;SDS011;34352;51.084;3.712;2022-07-15T00:29:57;15.82;;;7.22;;
48574;SDS011;34352;51.084;3.712;2022-07-15T00:32:22;13.00;;;6.95;;
48574;SDS011;34352;51.084;3.712;2022-07-15T00:34:48;16.27;;;6.78;;
48574;SDS011;34352;51.084;3.712;2022-07-15T00:37:16;14.60;;;7.00;;
48574;SDS011;34352;51.084;3.712;2022-07-15T00:39:42;15.25;;;6.65;;
48574;SDS011;34352;51.084;3.712;2022-07-15T00:42:10;13.40;;;6.45;;
48574;SDS011;34352;51.084;3.712;2022-07-15T00:44:57;14.98;;;6.88;;
48574;SDS011;34352;51.084;3.712;2022-07-15T00:47:22;15.40;;;6.88;;
48574;SDS011;34352;51.084;3.712;2022-07-15T00:49:48;12.77;;;7.20;;
48574;SDS011;34352;51.084;3.712;2022-07-15T00:52:14;14.75;;;6.70;;
48574;SDS011;34352;51.084;3.712;2022-07-15T00:54:41;14.95;;;7.53;;
48574;SDS011;34352;51.084;3.712;2022-07-15T00:57:08;14.00;;;7.18;;
48574;SDS011;34352;51.084;3.712;2022-07-15T00:59:34;11.35;;;6.78;;
48574;SDS011;34352;51.084;3.712;2022-07-15T01:02:01;14.80;;;7.32;;
48574;SDS011;34352;51.084;3.712;2022-07-15T01:04:27;15.60;;;7.03;;
48574;SDS011;34352;51.084;3.712;2022-07-15T01:06:54;16.25;;;7.30;;
48574;SDS011;34352;51.084;3.712;2022-07-15T01:09:20;12.90;;;6.57;;
48574;SDS011;34352;51.084;3.712;2022-07-15T01:11:46;12.13;;;6.88;;
48574;SDS011;34352;51.084;3.712;2022-07-15T01:14:12;15.57;;;7.97;;
48574;SDS011;34352;51.084;3.712;2022-07-15T01:16:38;13.48;;;8.32;;
48574;SDS011;34352;51.084;3.712;2022-07-15T01:19:04;19.42;;;9.20;;
48574;SDS011;34352;51.084;3.712;2022-07-15T01:21:29;18.35;;;9.52;;
48574;SDS011;34352;51.084;3.712;2022-07-15T01:23:55;18.83;;;9.93;;
48574;SDS011;34352;51.084;3.712;2022-07-15T01:26:21;17.42;;;10.07;;
48574;SDS011;34352;51.084;3.712;2022-07-15T01:28:46;17.65;;;9.93;;
48574;SDS011;34352;51.084;3.712;2022-07-15T01:31:12;20.15;;;10.02;;
48574;SDS011;34352;51.084;3.712;2022-07-15T01:33:38;20.20;;;9.18;;
48574;SDS011;34352;51.084;3.712;2022-07-15T01:36:03;17.35;;;8.93;;
48574;SDS011;34352;51.084;3.712;2022-07-15T01:38:30;13.63;;;8.20;;
48574;SDS011;34352;51.084;3.712;2022-07-15T01:40:56;16.80;;;9.00;;
48574;SDS011;34352;51.084;3.712;2022-07-15T01:43:22;14.25;;;7.60;;
48574;SDS011;34352;51.084;3.712;2022-07-15T01:45:48;17.00;;;8.38;;
48574;SDS011;34352;51.084;3.712;2022-07-15T01:48:14;12.68;;;7.30;;
48574;SDS011;34352;51.084;3.712;2022-07-15T01:50:59;15.38;;;7.40;;
48574;SDS011;34352;51.084;3.712;2022-07-15T01:53:26;11.75;;;7.32;;
48574;SDS011;34352;51.084;3.712;2022-07-15T01:55:53;16.70;;;8.00;;
48574;SDS011;34352;51.084;3.712;2022-07-15T01:58:19;15.63;;;7.43;;
48574;SDS011;34352;51.084;3.712;2022-07-15T02:00:45;16.48;;;7.80;;
48574;SDS011;34352;51.084;3.712;2022-07-15T02:03:12;17.48;;;7.82;;
48574;SDS011;34352;51.084;3.712;2022-07-15T02:05:38;12.63;;;8.00;;
48574;SDS011;34352;51.084;3.712;2022-07-15T02:08:04;13.95;;;7.38;;
48574;SDS011;34352;51.084;3.712;2022-07-15T02:10:30;16.20;;;8.25;;
48574;SDS011;34352;51.084;3.712;2022-07-15T02:13:09;14.27;;;7.97;;
48574;SDS011;34352;51.084;3.712;2022-07-15T02:15:37;14.57;;;8.35;;
48574;SDS011;34352;51.084;3.712;2022-07-15T02:18:06;17.05;;;8.55;;
48574;SDS011;34352;51.084;3.712;2022-07-15T02:20:32;17.13;;;8.82;;
48574;SDS011;34352;51.084;3.712;2022-07-15T02:22:58;18.02;;;8.48;;
48574;SDS011;34352;51.084;3.712;2022-07-15T02:25:26;17.33;;;8.40;;
48574;SDS011;34352;51.084;3.712;2022-07-15T02:27:54;15.50;;;8.43;;
48574;SDS011;34352;51.084;3.712;2022-07-15T02:30:27;18.23;;;8.23;;
48574;SDS011;34352;51.084;3.712;2022-07-15T02:32:55;16.02;;;8.23;;
48574;SDS011;34352;51.084;3.712;2022-07-15T02:35:24;20.48;;;7.88;;
48574;SDS011;34352;51.084;3.712;2022-07-15T02:37:50;14.00;;;7.47;;
48574;SDS011;34352;51.084;3.712;2022-07-15T02:40:16;15.70;;;7.68;;
48574;SDS011;34352;51.084;3.712;2022-07-15T02:42:48;15.55;;;7.93;;
48574;SDS011;34352;51.084;3.712;2022-07-15T02:45:16;11.10;;;6.35;;
48574;SDS011;34352;51.084;3.712;2022-07-15T02:47:46;13.43;;;7.60;;
48574;SDS011;34352;51.084;3.712;2022-07-15T02:50:12;19.27;;;8.27;;
48574;SDS011;34352;51.084;3.712;2022-07-15T02:52:39;11.40;;;7.47;;
48574;SDS011;34352;51.084;3.712;2022-07-15T02:55:05;12.05;;;7.60;;
48574;SDS011;34352;51.084;3.712;2022-07-15T02:57:31;14.13;;;7.65;;
48574;SDS011;34352;51.084;3.712;2022-07-15T02:59:57;17.27;;;7.55;;
48574;SDS011;34352;51.084;3.712;2022-07-15T03:02:23;13.20;;;7.15;;
48574;SDS011;34352;51.084;3.712;2022-07-15T03:04:49;15.85;;;7.30;;
48574;SDS011;34352;51.084;3.712;2022-07-15T03:07:15;13.43;;;7.10;;
48574;SDS011;34352;51.084;3.712;2022-07-15T03:09:40;16.33;;;7.88;;
48574;SDS011;34352;51.084;3.712;2022-07-15T03:12:06;18.00;;;8.93;;
48574;SDS011;34352;51.084;3.712;2022-07-15T03:14:32;15.20;;;8.45;;
48574;SDS011;34352;51.084;3.712;2022-07-15T03:16:58;14.95;;;8.25;;
48574;SDS011;34352;51.084;3.712;2022-07-15T03:19:24;19.80;;;8.88;;
48574;SDS011;34352;51.084;3.712;2022-07-15T03:21:50;18.48;;;8.95;;
48574;SDS011;34352;51.084;3.712;2022-07-15T03:24:15;14.95;;;8.15;;
48574;SDS011;34352;51.084;3.712;2022-07-15T03:26:41;13.25;;;7.80;;
48574;SDS011;34352;51.084;3.712;2022-07-15T03:29:07;16.08;;;8.27;;
48574;SDS011;34352;51.084;3.712;2022-07-15T03:31:34;16.23;;;8.35;;
48574;SDS011;34352;51.084;3.712;2022-07-15T03:34:00;17.52;;;8.20;;
48574;SDS011;34352;51.084;3.712;2022-07-15T03:36:25;17.52;;;8.73;;
48574;SDS011;34352;51.084;3.712;2022-07-15T03:38:51;17.77;;;8.20;;
48574;SDS011;34352;51.084;3.712;2022-07-15T03:41:17;16.75;;;7.72;;
48574;SDS011;34352;51.084;3.712;2022-07-15T03:43:43;13.30;;;7.32;;
48574;SDS011;34352;51.084;3.712;2022-07-15T03:46:09;13.65;;;7.82;;
48574;SDS011;34352;51.084;3.712;2022-07-15T03:48:35;15.05;;;7.88;;
48574;SDS011;34352;51.084;3.712;2022-07-15T03:51:00;14.63;;;7.55;;
48574;SDS011;34352;51.084;3.712;2022-07-15T03:53:26;12.88;;;7.07;;
48574;SDS011;34352;51.084;3.712;2022-07-15T03:55:52;13.57;;;7.07;;
48574;SDS011;34352;51.084;3.712;2022-07-15T03:58:17;13.75;;;8.00;;
48574;SDS011;34352;51.084;3.712;2022-07-15T04:00:43;10.52;;;6.72;;
48574;SDS011;34352;51.084;3.712;2022-07-15T04:03:08;14.23;;;7.88;;
48574;SDS011;34352;51.084;3.712;2022-07-15T04:05:34;10.02;;;7.50;;
48574;SDS011;34352;51.084;3.712;2022-07-15T04:08:00;15.50;;;7.80;;
48574;SDS011;34352;51.084;3.712;2022-07-15T04:10:26;13.63;;;8.13;;
48574;SDS011;34352;51.084;3.712;2022-07-15T04:12:51;16.95;;;8.43;;
48574;SDS011;34352;51.084;3.712;2022-07-15T04:15:17;16.73;;;7.57;;
48574;SDS011;34352;51.084;3.712;2022-07-15T04:17:43;19.23;;;8.35;;
48574;SDS011;34352;51.084;3.712;2022-07-15T04:20:09;16.77;;;8.10;;
48574;SDS011;34352;51.084;3.712;2022-07-15T04:22:44;19.85;;;9.02;;
48574;SDS011;34352;51.084;3.712;2022-07-15T04:25:14;13.90;;;8.15;;
48574;SDS011;34352;51.084;3.712;2022-07-15T04:27:41;22.88;;;9.65;;
48574;SDS011;34352;51.084;3.712;2022-07-15T04:30:08;24.02;;;9.50;;
48574;SDS011;34352;51.084;3.712;2022-07-15T04:32:34;18.98;;;9.20;;
48574;SDS011;34352;51.084;3.712;2022-07-15T04:35:00;20.30;;;9.85;;
48574;SDS011;34352;51.084;3.712;2022-07-15T04:37:27;19.38;;;9.38;;
48574;SDS011;34352;51.084;3.712;2022-07-15T04:39:53;19.30;;;9.52;;
48574;SDS011;34352;51.084;3.712;2022-07-15T04:42:20;15.27;;;9.35;;
48574;SDS011;34352;51.084;3.712;2022-07-15T04:44:46;20.83;;;10.20;;
48574;SDS011;34352;51.084;3.712;2022-07-15T04:47:15;16.90;;;9.18;;
48574;SDS011;34352;51.084;3.712;2022-07-15T04:49:41;16.95;;;9.02;;
48574;SDS011;34352;51.084;3.712;2022-07-15T04:52:26;17.45;;;8.88;;
48574;SDS011;34352;51.084;3.712;2022-07-15T04:54:52;19.23;;;8.88;;
48574;SDS011;34352;51.084;3.712;2022-07-15T04:57:19;14.98;;;8.57;;
48574;SDS011;34352;51.084;3.712;2022-07-15T04:59:45;16.08;;;8.13;;
48574;SDS011;34352;51.084;3.712;2022-07-15T05:02:11;17.63;;;8.48;;
48574;SDS011;34352;51.084;3.712;2022-07-15T05:04:37;13.23;;;7.15;;
48574;SDS011;34352;51.084;3.712;2022-07-15T05:07:06;17.27;;;8.23;;
48574;SDS011;34352;51.084;3.712;2022-07-15T05:09:32;13.57;;;6.53;;
48574;SDS011;34352;51.084;3.712;2022-07-15T05:11:58;13.68;;;7.18;;
48574;SDS011;34352;51.084;3.712;2022-07-15T05:14:24;15.02;;;7.00;;
48574;SDS011;34352;51.084;3.712;2022-07-15T05:16:50;13.63;;;7.38;;
48574;SDS011;34352;51.084;3.712;2022-07-15T05:19:16;18.42;;;6.95;;
48574;SDS011;34352;51.084;3.712;2022-07-15T05:21:41;18.73;;;7.00;;
48574;SDS011;34352;51.084;3.712;2022-07-15T05:24:07;11.88;;;5.95;;
48574;SDS011;34352;51.084;3.712;2022-07-15T05:26:33;12.40;;;6.32;;
48574;SDS011;34352;51.084;3.712;2022-07-15T05:28:58;14.05;;;6.18;;
48574;SDS011;34352;51.084;3.712;2022-07-15T05:31:24;15.45;;;5.72;;
48574;SDS011;34352;51.084;3.712;2022-07-15T05:33:50;12.95;;;5.32;;
48574;SDS011;34352;51.084;3.712;2022-07-15T05:36:17;14.38;;;6.03;;
48574;SDS011;34352;51.084;3.712;2022-07-15T05:38:43;12.30;;;5.72;;
48574;SDS011;34352;51.084;3.712;2022-07-15T05:41:10;16.90;;;5.63;;
48574;SDS011;34352;51.084;3.712;2022-07-15T05:43:36;16.67;;;5.85;;
48574;SDS011;34352;51.084;3.712;2022-07-15T05:46:03;18.38;;;5.65;;
48574;SDS011;34352;51.084;3.712;2022-07-15T05:48:29;13.70;;;5.15;;
48574;SDS011;34352;51.084;3.712;2022-07-15T05:50:55;16.48;;;5.93;;
48574;SDS011;34352;51.084;3.712;2022-07-15T05:53:21;16.95;;;6.07;;
48574;SDS011;34352;51.084;3.712;2022-07-15T05:55:47;12.20;;;5.10;;
48574;SDS011;34352;51.084;3.712;2022-07-15T05:58:13;15.48;;;4.88;;
48574;SDS011;34352;51.084;3.712;2022-07-15T06:00:38;9.63;;;3.65;;
48574;SDS011;34352;51.084;3.712;2022-07-15T06:03:04;7.53;;;3.83;;
48574;SDS011;34352;51.084;3.712;2022-07-15T06:05:30;9.70;;;3.30;;
48574;SDS011;34352;51.084;3.712;2022-07-15T06:07:56;6.97;;;3.30;;
48574;SDS011;34352;51.084;3.712;2022-07-15T06:10:22;7.18;;;3.28;;
48574;SDS011;34352;51.084;3.712;2022-07-15T06:12:49;6.32;;;2.67;;
48574;SDS011;34352;51.084;3.712;2022-07-15T06:15:17;6.80;;;3.00;;
48574;SDS011;34352;51.084;3.712;2022-07-15T06:17:44;6.13;;;3.38;;
48574;SDS011;34352;51.084;3.712;2022-07-15T06:20:11;5.45;;;2.50;;
48574;SDS011;34352;51.084;3.712;2022-07-15T06:22:40;5.97;;;2.47;;
48574;SDS011;34352;51.084;3.712;2022-07-15T06:25:05;7.25;;;2.13;;
48574;SDS011;34352;51.084;3.712;2022-07-15T06:27:31;4.55;;;2.00;;
48574;SDS011;34352;51.084;3.712;2022-07-15T06:29:57;4.68;;;2.03;;
48574;SDS011;34352;51.084;3.712;2022-07-15T06:32:23;4.13;;;1.60;;
48574;SDS011;34352;51.084;3.712;2022-07-15T06:34:49;6.55;;;1.70;;
48574;SDS011;34352;51.084;3.712;2022-07-15T06:37:15;5.40;;;1.58;;
48574;SDS011;34352;51.084;3.712;2022-07-15T06:39:40;4.18;;;1.63;;
48574;SDS011;34352;51.084;3.712;2022-07-15T06:42:06;3.95;;;1.50;;
48574;SDS011;34352;51.084;3.712;2022-07-15T06:44:32;3.42;;;1.63;;
48574;SDS011;34352;51.084;3.712;2022-07-15T06:46:57;3.90;;;1.60;;
48574;SDS011;34352;51.084;3.712;2022-07-15T06:49:23;5.45;;;1.48;;
48574;SDS011;34352;51.084;3.712;2022-07-15T06:51:49;4.07;;;1.40;;
48574;SDS011;34352;51.084;3.712;2022-07-15T06:54:17;3.90;;;1.45;;
48574;SDS011;34352;51.084;3.712;2022-07-15T06:56:43;4.72;;;1.50;;
48574;SDS011;34352;51.084;3.712;2022-07-15T06:59:09;6.35;;;1.70;;
48574;SDS011;34352;51.084;3.712;2022-07-15T07:01:35;3.28;;;1.52;;
48574;SDS011;34352;51.084;3.712;2022-07-15T07:04:01;4.18;;;1.50;;
48574;SDS011;34352;51.084;3.712;2022-07-15T07:06:27;4.20;;;1.58;;
48574;SDS011;34352;51.084;3.712;2022-07-15T07:08:53;5.72;;;1.70;;
48574;SDS011;34352;51.084;3.712;2022-07-15T07:11:19;3.85;;;1.55;;
48574;SDS011;34352;51.084;3.712;2022-07-15T07:13:46;5.22;;;1.20;;
48574;SDS011;34352;51.084;3.712;2022-07-15T07:16:12;3.85;;;1.60;;
48574;SDS011;34352;51.084;3.712;2022-07-15T07:18:38;5.22;;;1.20;;
48574;SDS011;34352;51.084;3.712;2022-07-15T07:21:04;3.70;;;1.00;;
48574;SDS011;34352;51.084;3.712;2022-07-15T07:23:30;4.15;;;1.25;;
48574;SDS011;34352;51.084;3.712;2022-07-15T07:25:56;5.43;;;1.52;;
48574;SDS011;34352;51.084;3.712;2022-07-15T07:28:23;4.00;;;1.40;;
48574;SDS011;34352;51.084;3.712;2022-07-15T07:30:48;6.38;;;1.92;;
48574;SDS011;34352;51.084;3.712;2022-07-15T07:33:16;2.63;;;0.88;;
48574;SDS011;34352;51.084;3.712;2022-07-15T07:35:42;2.60;;;1.10;;
48574;SDS011;34352;51.084;3.712;2022-07-15T07:38:08;3.33;;;1.30;;
48574;SDS011;34352;51.084;3.712;2022-07-15T07:40:34;5.22;;;1.20;;
48574;SDS011;34352;51.084;3.712;2022-07-15T07:43:00;2.63;;;1.30;;
48574;SDS011;34352;51.084;3.712;2022-07-15T07:45:26;4.82;;;1.45;;
48574;SDS011;34352;51.084;3.712;2022-07-15T07:47:53;5.40;;;1.55;;
48574;SDS011;34352;51.084;3.712;2022-07-15T07:50:20;4.57;;;1.80;;
48574;SDS011;34352;51.084;3.712;2022-07-15T07:52:45;3.05;;;1.10;;
48574;SDS011;34352;51.084;3.712;2022-07-15T07:55:11;4.97;;;1.50;;
48574;SDS011;34352;51.084;3.712;2022-07-15T07:57:45;5.30;;;2.13;;
48574;SDS011;34352;51.084;3.712;2022-07-15T08:00:13;4.78;;;1.50;;
48574;SDS011;34352;51.084;3.712;2022-07-15T08:02:39;4.63;;;1.48;;
48574;SDS011;34352;51.084;3.712;2022-07-15T08:05:05;5.07;;;1.50;;
48574;SDS011;34352;51.084;3.712;2022-07-15T08:07:31;3.13;;;1.20;;
48574;SDS011;34352;51.084;3.712;2022-07-15T08:09:57;5.35;;;1.50;;
48574;SDS011;34352;51.084;3.712;2022-07-15T08:12:22;3.85;;;1.42;;
48574;SDS011;34352;51.084;3.712;2022-07-15T08:14:48;1.80;;;1.00;;
48574;SDS011;34352;51.084;3.712;2022-07-15T08:17:15;2.63;;;0.80;;
48574;SDS011;34352;51.084;3.712;2022-07-15T08:19:41;4.07;;;1.20;;
48574;SDS011;34352;51.084;3.712;2022-07-15T08:22:06;1.63;;;0.80;;
48574;SDS011;34352;51.084;3.712;2022-07-15T08:24:32;4.05;;;1.25;;
48574;SDS011;34352;51.084;3.712;2022-07-15T08:26:58;3.78;;;1.00;;
48574;SDS011;34352;51.084;3.712;2022-07-15T08:29:23;2.35;;;1.02;;
48574;SDS011;34352;51.084;3.712;2022-07-15T08:31:49;3.55;;;1.00;;
48574;SDS011;34352;51.084;3.712;2022-07-15T08:34:15;1.58;;;0.70;;
48574;SDS011;34352;51.084;3.712;2022-07-15T08:36:41;1.67;;;0.93;;
48574;SDS011;34352;51.084;3.712;2022-07-15T08:39:07;1.48;;;0.85;;
48574;SDS011;34352;51.084;3.712;2022-07-15T08:41:33;2.65;;;1.10;;
48574;SDS011;34352;51.084;3.712;2022-07-15T08:44:00;2.03;;;1.23;;
48574;SDS011;34352;51.084;3.712;2022-07-15T08:46:26;4.15;;;1.27;;
48574;SDS011;34352;51.084;3.712;2022-07-15T08:48:58;1.15;;;0.90;;
48574;SDS011;34352;51.084;3.712;2022-07-15T08:51:29;1.65;;;0.98;;
48574;SDS011;34352;51.084;3.712;2022-07-15T08:53:57;2.53;;;1.00;;
48574;SDS011;34352;51.084;3.712;2022-07-15T08:56:23;2.85;;;1.15;;
48574;SDS011;34352;51.084;3.712;2022-07-15T08:58:49;2.22;;;1.33;;
48574;SDS011;34352;51.084;3.712;2022-07-15T09:01:15;2.53;;;0.80;;
48574;SDS011;34352;51.084;3.712;2022-07-15T09:03:41;1.92;;;0.93;;
48574;SDS011;34352;51.084;3.712;2022-07-15T09:06:07;3.15;;;1.20;;
48574;SDS011;34352;51.084;3.712;2022-07-15T09:08:33;4.22;;;1.23;;
48574;SDS011;34352;51.084;3.712;2022-07-15T09:10:59;2.70;;;1.20;;
48574;SDS011;34352;51.084;3.712;2022-07-15T09:13:33;3.42;;;1.02;;
48574;SDS011;34352;51.084;3.712;2022-07-15T09:16:09;3.80;;;1.10;;
48574;SDS011;34352;51.084;3.712;2022-07-15T09:18:42;2.42;;;1.15;;
48574;SDS011;34352;51.084;3.712;2022-07-15T09:21:19;2.35;;;1.15;;
48574;SDS011;34352;51.084;3.712;2022-07-15T09:23:47;3.55;;;1.30;;
48574;SDS011;34352;51.084;3.712;2022-07-15T09:28:51;3.88;;;1.23;;
48574;SDS011;34352;51.084;3.712;2022-07-15T09:34:18;3.08;;;1.33;;
48574;SDS011;34352;51.084;3.712;2022-07-15T09:36:45;4.20;;;1.38;;
48574;SDS011;34352;51.084;3.712;2022-07-15T09:39:16;4.63;;;1.40;;
48574;SDS011;34352;51.084;3.712;2022-07-15T09:41:43;4.32;;;1.70;;
48574;SDS011;34352;51.084;3.712;2022-07-15T09:44:16;4.28;;;1.60;;
48574;SDS011;34352;51.084;3.712;2022-07-15T09:46:48;2.00;;;1.40;;
48574;SDS011;34352;51.084;3.712;2022-07-15T09:49:30;2.35;;;1.23;;
48574;SDS011;34352;51.084;3.712;2022-07-15T09:52:11;4.68;;;1.60;;
48574;SDS011;34352;51.084;3.712;2022-07-15T09:57:07;3.72;;;1.52;;
48574;SDS011;34352;51.084;3.712;2022-07-15T09:59:44;3.72;;;1.67;;
48574;SDS011;34352;51.084;3.712;2022-07-15T10:02:11;4.18;;;1.75;;
48574;SDS011;34352;51.084;3.712;2022-07-15T10:04:38;5.32;;;1.73;;
48574;SDS011;34352;51.084;3.712;2022-07-15T10:07:04;3.38;;;1.77;;
48574;SDS011;34352;51.084;3.712;2022-07-15T10:09:32;2.88;;;1.60;;
48574;SDS011;34352;51.084;3.712;2022-07-15T10:31:12;3.85;;;1.73;;
48574;SDS011;34352;51.084;3.712;2022-07-15T10:33:41;2.70;;;1.70;;
48574;SDS011;34352;51.084;3.712;2022-07-15T10:36:07;2.80;;;1.80;;
48574;SDS011;34352;51.084;3.712;2022-07-15T10:38:34;4.25;;;1.92;;
48574;SDS011;34352;51.084;3.712;2022-07-15T10:41:02;2.97;;;1.70;;
48574;SDS011;34352;51.084;3.712;2022-07-15T10:43:52;4.40;;;1.63;;
48574;SDS011;34352;51.084;3.712;2022-07-15T10:46:20;3.58;;;1.58;;
48574;SDS011;34352;51.084;3.712;2022-07-15T10:48:51;5.57;;;1.70;;
48574;SDS011;34352;51.084;3.712;2022-07-15T10:54:01;7.38;;;1.67;;
48574;SDS011;34352;51.084;3.712;2022-07-15T10:59:09;5.15;;;1.70;;
48574;SDS011;34352;51.084;3.712;2022-07-15T11:01:36;6.18;;;1.70;;
48574;SDS011;34352;51.084;3.712;2022-07-15T11:04:16;3.15;;;1.80;;
48574;SDS011;34352;51.084;3.712;2022-07-15T11:09:47;6.03;;;1.83;;
48574;SDS011;34352;51.084;3.712;2022-07-15T11:17:54;4.65;;;1.80;;
48574;SDS011;34352;51.084;3.712;2022-07-15T11:20:26;4.35;;;2.03;;
48574;SDS011;34352;51.084;3.712;2022-07-15T11:22:57;3.75;;;2.03;;
48574;SDS011;34352;51.084;3.712;2022-07-15T11:27:58;4.38;;;1.90;;
48574;SDS011;34352;51.084;3.712;2022-07-15T11:30:38;4.18;;;1.95;;
48574;SDS011;34352;51.084;3.712;2022-07-15T11:33:07;4.30;;;2.00;;
48574;SDS011;34352;51.084;3.712;2022-07-15T11:35:49;4.50;;;2.10;;
48574;SDS011;34352;51.084;3.712;2022-07-15T11:38:18;3.50;;;1.80;;
48574;SDS011;34352;51.084;3.712;2022-07-15T11:40:49;4.65;;;2.20;;
48574;SDS011;34352;51.084;3.712;2022-07-15T11:43:38;3.42;;;1.83;;
48574;SDS011;34352;51.084;3.712;2022-07-15T11:46:23;3.05;;;1.90;;
48574;SDS011;34352;51.084;3.712;2022-07-15T11:48:50;5.75;;;2.17;;
48574;SDS011;34352;51.084;3.712;2022-07-15T11:51:22;4.38;;;2.20;;
48574;SDS011;34352;51.084;3.712;2022-07-15T11:53:53;5.85;;;2.90;;
48574;SDS011;34352;51.084;3.712;2022-07-15T11:56:20;4.93;;;2.53;;
48574;SDS011;34352;51.084;3.712;2022-07-15T11:58:49;3.63;;;2.30;;
48574;SDS011;34352;51.084;3.712;2022-07-15T12:01:20;5.87;;;1.93;;
48574;SDS011;34352;51.084;3.712;2022-07-15T12:08:48;3.50;;;1.77;;
48574;SDS011;34352;51.084;3.712;2022-07-15T12:11:18;3.47;;;1.50;;
48574;SDS011;34352;51.084;3.712;2022-07-15T12:13:52;2.78;;;1.70;;
48574;SDS011;34352;51.084;3.712;2022-07-15T12:16:21;6.82;;;1.92;;
48574;SDS011;34352;51.084;3.712;2022-07-15T12:19:05;4.30;;;1.80;;
48574;SDS011;34352;51.084;3.712;2022-07-15T12:21:32;4.93;;;1.90;;
48574;SDS011;34352;51.084;3.712;2022-07-15T12:24:00;3.75;;;1.80;;
48574;SDS011;34352;51.084;3.712;2022-07-15T12:26:26;4.30;;;1.90;;
48574;SDS011;34352;51.084;3.712;2022-07-15T12:28:56;3.72;;;1.88;;
48574;SDS011;34352;51.084;3.712;2022-07-15T12:31:30;5.32;;;2.00;;
48574;SDS011;34352;51.084;3.712;2022-07-15T12:33:57;6.07;;;1.88;;
48574;SDS011;34352;51.084;3.712;2022-07-15T12:36:24;6.07;;;1.77;;
48574;SDS011;34352;51.084;3.712;2022-07-15T12:41:28;3.30;;;1.50;;
48574;SDS011;34352;51.084;3.712;2022-07-15T12:43:55;2.83;;;1.50;;
48574;SDS011;34352;51.084;3.712;2022-07-15T12:52:15;9.30;;;1.90;;
48574;SDS011;34352;51.084;3.712;2022-07-15T12:54:40;3.75;;;1.80;;
48574;SDS011;34352;51.084;3.712;2022-07-15T12:57:17;4.38;;;1.85;;
48574;SDS011;34352;51.084;3.712;2022-07-15T13:00:02;4.80;;;2.15;;
48574;SDS011;34352;51.084;3.712;2022-07-15T13:02:30;4.05;;;1.80;;
48574;SDS011;34352;51.084;3.712;2022-07-15T13:04:56;6.43;;;1.90;;
48574;SDS011;34352;51.084;3.712;2022-07-15T13:07:22;7.80;;;2.30;;
48574;SDS011;34352;51.084;3.712;2022-07-15T13:09:49;3.47;;;1.83;;
48574;SDS011;34352;51.084;3.712;2022-07-15T13:12:15;3.08;;;1.63;;
48574;SDS011;34352;51.084;3.712;2022-07-15T13:14:41;4.60;;;1.77;;
48574;SDS011;34352;51.084;3.712;2022-07-15T13:17:07;2.50;;;1.48;;
48574;SDS011;34352;51.084;3.712;2022-07-15T13:19:33;4.05;;;1.90;;
48574;SDS011;34352;51.084;3.712;2022-07-15T13:22:00;4.28;;;1.83;;
48574;SDS011;34352;51.084;3.712;2022-07-15T13:24:26;8.82;;;1.67;;
48574;SDS011;34352;51.084;3.712;2022-07-15T13:26:53;2.45;;;1.55;;
48574;SDS011;34352;51.084;3.712;2022-07-15T13:29:19;3.30;;;1.52;;
48574;SDS011;34352;51.084;3.712;2022-07-15T13:31:44;5.78;;;1.75;;
48574;SDS011;34352;51.084;3.712;2022-07-15T13:34:10;3.30;;;1.60;;
48574;SDS011;34352;51.084;3.712;2022-07-15T13:36:36;2.03;;;1.30;;
48574;SDS011;34352;51.084;3.712;2022-07-15T13:39:02;6.07;;;1.70;;
48574;SDS011;34352;51.084;3.712;2022-07-15T13:41:28;4.32;;;1.55;;
48574;SDS011;34352;51.084;3.712;2022-07-15T13:43:54;3.33;;;1.70;;
48574;SDS011;34352;51.084;3.712;2022-07-15T13:46:21;2.13;;;1.58;;
48574;SDS011;34352;51.084;3.712;2022-07-15T13:48:47;6.55;;;1.85;;
48574;SDS011;34352;51.084;3.712;2022-07-15T13:51:12;3.83;;;1.63;;
48574;SDS011;34352;51.084;3.712;2022-07-15T13:53:50;5.50;;;1.60;;
48574;SDS011;34352;51.084;3.712;2022-07-15T13:56:19;4.28;;;1.77;;
48574;SDS011;34352;51.084;3.712;2022-07-15T13:58:45;3.20;;;1.60;;
48574;SDS011;34352;51.084;3.712;2022-07-15T14:01:11;5.45;;;2.05;;
48574;SDS011;34352;51.084;3.712;2022-07-15T14:03:37;5.55;;;2.10;;
48574;SDS011;34352;51.084;3.712;2022-07-15T14:06:04;5.47;;;1.83;;
48574;SDS011;34352;51.084;3.712;2022-07-15T14:08:30;4.68;;;1.77;;
48574;SDS011;34352;51.084;3.712;2022-07-15T14:10:55;3.65;;;1.67;;
48574;SDS011;34352;51.084;3.712;2022-07-15T14:13:21;6.53;;;2.13;;
48574;SDS011;34352;51.084;3.712;2022-07-15T14:15:47;5.13;;;1.70;;
48574;SDS011;34352;51.084;3.712;2022-07-15T14:18:13;4.00;;;1.88;;
48574;SDS011;34352;51.084;3.712;2022-07-15T14:20:40;5.95;;;2.25;;
48574;SDS011;34352;51.084;3.712;2022-07-15T14:23:11;3.92;;;1.77;;
48574;SDS011;34352;51.084;3.712;2022-07-15T14:25:37;6.25;;;1.67;;
48574;SDS011;34352;51.084;3.712;2022-07-15T14:28:03;3.78;;;1.80;;
48574;SDS011;34352;51.084;3.712;2022-07-15T14:30:29;4.25;;;1.85;;
48574;SDS011;34352;51.084;3.712;2022-07-15T14:32:55;3.33;;;1.70;;
48574;SDS011;34352;51.084;3.712;2022-07-15T14:35:21;8.93;;;2.75;;
48574;SDS011;34352;51.084;3.712;2022-07-15T14:37:47;3.45;;;1.77;;
48574;SDS011;34352;51.084;3.712;2022-07-15T14:40:13;5.38;;;1.90;;
48574;SDS011;34352;51.084;3.712;2022-07-15T14:42:40;4.32;;;1.88;;
48574;SDS011;34352;51.084;3.712;2022-07-15T14:45:06;3.75;;;2.10;;
48574;SDS011;34352;51.084;3.712;2022-07-15T14:47:33;4.22;;;2.10;;
48574;SDS011;34352;51.084;3.712;2022-07-15T14:49:58;3.85;;;1.70;;
48574;SDS011;34352;51.084;3.712;2022-07-15T14:52:24;7.22;;;2.15;;
48574;SDS011;34352;51.084;3.712;2022-07-15T14:54:49;2.60;;;1.90;;
48574;SDS011;34352;51.084;3.712;2022-07-15T14:57:15;4.97;;;2.28;;
48574;SDS011;34352;51.084;3.712;2022-07-15T14:59:43;5.20;;;2.35;;
48574;SDS011;34352;51.084;3.712;2022-07-15T15:02:09;5.28;;;2.22;;
48574;SDS011;34352;51.084;3.712;2022-07-15T15:04:35;2.75;;;2.10;;
48574;SDS011;34352;51.084;3.712;2022-07-15T15:07:01;6.28;;;2.08;;
48574;SDS011;34352;51.084;3.712;2022-07-15T15:09:27;4.07;;;2.10;;
48574;SDS011;34352;51.084;3.712;2022-07-15T15:11:54;4.50;;;2.45;;
48574;SDS011;34352;51.084;3.712;2022-07-15T15:14:20;3.00;;;2.25;;
48574;SDS011;34352;51.084;3.712;2022-07-15T15:16:46;6.50;;;2.20;;
48574;SDS011;34352;51.084;3.712;2022-07-15T15:19:13;4.38;;;2.67;;
48574;SDS011;34352;51.084;3.712;2022-07-15T15:21:38;5.85;;;2.78;;
48574;SDS011;34352;51.084;3.712;2022-07-15T15:24:04;5.22;;;2.22;;
48574;SDS011;34352;51.084;3.712;2022-07-15T15:26:31;4.93;;;2.13;;
48574;SDS011;34352;51.084;3.712;2022-07-15T15:28:57;5.55;;;2.15;;
48574;SDS011;34352;51.084;3.712;2022-07-15T15:31:23;4.10;;;2.15;;
48574;SDS011;34352;51.084;3.712;2022-07-15T15:33:51;4.75;;;2.42;;
48574;SDS011;34352;51.084;3.712;2022-07-15T15:36:17;6.45;;;2.50;;
48574;SDS011;34352;51.084;3.712;2022-07-15T15:38:44;4.75;;;2.00;;
48574;SDS011;34352;51.084;3.712;2022-07-15T15:41:10;4.03;;;2.10;;